sensor_id;sensor_type;location;lat;lon;timestamp;temperature;humidity
15967;DHT22;15175;48.154;11.534;2022-07-23T00:01:20;25.80;99.90
15967;DHT22;15175;48.154;11.534;2022-07-23T00:03:48;25.70;99.90
15967;DHT22;15175;48.154;11.534;2022-07-23T00:06:15;25.70;99.90
15967;DHT22;15175;48.154;11.534;2022-07-23T00:08:44;25.60;99.90
15967;DHT22;15175;48.154;11.534;2022-07-23T00:11:11;25.60;99.90
15967;DHT22;15175;48.154;11.534;2022-07-23T00:13:38;25.50;99.90
15967;DHT22;15175;48.154;11.534;2022-07-23T00:16:06;25.50;99.90
15967;DHT22;15175;48.154;11.534;2022-07-23T00:18:33;25.50;99.90
15967;DHT22;15175;48.154;11.534;2022-07-23T00:21:00;25.40;99.90
15967;DHT22;15175;48.154;11.534;2022-07-23T00:23:27;25.40;99.90
15967;DHT22;15175;48.154;11.534;2022-07-23T00:25:57;25.40;99.90
15967;DHT22;15175;48.154;11.534;2022-07-23T00:28:25;25.40;99.90
15967;DHT22;15175;48.154;11.534;2022-07-23T00:30:52;25.40;99.60
15967;DHT22;15175;48.154;11.534;2022-07-23T00:33:20;25.40;99.60
15967;DHT22;15175;48.154;11.534;2022-07-23T00:35:47;25.40;99.60
15967;DHT22;15175;48.154;11.534;2022-07-23T00:38:14;25.40;99.90
15967;DHT22;15175;48.154;11.534;2022-07-23T00:40:41;25.30;99.90
15967;DHT22;15175;48.154;11.534;2022-07-23T00:43:10;25.40;99.90
15967;DHT22;15175;48.154;11.534;2022-07-23T00:45:37;25.40;99.90
15967;DHT22;15175;48.154;11.534;2022-07-23T00:48:05;25.40;99.90
15967;DHT22;15175;48.154;11.534;2022-07-23T00:50:33;25.40;99.90
15967;DHT22;15175;48.154;11.534;2022-07-23T00:53:00;25.40;99.90
15967;DHT22;15175;48.154;11.534;2022-07-23T00:55:27;25.40;99.90
15967;DHT22;15175;48.154;11.534;2022-07-23T00:57:55;25.40;99.90
15967;DHT22;15175;48.154;11.534;2022-07-23T01:00:26;25.30;99.90
15967;DHT22;15175;48.154;11.534;2022-07-23T01:02:53;25.30;99.90
15967;DHT22;15175;48.154;11.534;2022-07-23T01:05:20;25.30;99.90
15967;DHT22;15175;48.154;11.534;2022-07-23T01:07:49;25.30;99.90
15967;DHT22;15175;48.154;11.534;2022-07-23T01:10:16;25.30;99.90
15967;DHT22;15175;48.154;11.534;2022-07-23T01:12:59;25.30;99.90
15967;DHT22;15175;48.154;11.534;2022-07-23T01:15:29;25.30;99.90
15967;DHT22;15175;48.154;11.534;2022-07-23T01:17:56;25.20;99.90
15967;DHT22;15175;48.154;11.534;2022-07-23T01:20:24;25.10;99.90
15967;DHT22;15175;48.154;11.534;2022-07-23T01:22:53;25.10;99.90
15967;DHT22;15175;48.154;11.534;2022-07-23T01:25:21;25.10;99.90
15967;DHT22;15175;48.154;11.534;2022-07-23T01:27:54;25.10;99.90
15967;DHT22;15175;48.154;11.534;2022-07-23T01:30:22;25.00;99.90
15967;DHT22;15175;48.154;11.534;2022-07-23T01:32:50;24.90;99.90
15967;DHT22;15175;48.154;11.534;2022-07-23T01:35:17;24.60;99.90
15967;DHT22;15175;48.154;11.534;2022-07-23T01:37:44;24.40;99.90
15967;DHT22;15175;48.154;11.534;2022-07-23T01:40:13;24.30;99.90
15967;DHT22;15175;48.154;11.534;2022-07-23T01:42:40;24.20;99.90
15967;DHT22;15175;48.154;11.534;2022-07-23T01:45:10;24.10;99.90
15967;DHT22;15175;48.154;11.534;2022-07-23T01:47:40;24.10;99.90
15967;DHT22;15175;48.154;11.534;2022-07-23T01:50:08;24.10;99.90
15967;DHT22;15175;48.154;11.534;2022-07-23T01:52:57;24.00;99.90
15967;DHT22;15175;48.154;11.534;2022-07-23T01:55:25;23.90;99.90
15967;DHT22;15175;48.154;11.534;2022-07-23T01:57:52;23.80;99.90
15967;DHT22;15175;48.154;11.534;2022-07-23T02:00:22;23.80;99.90
15967;DHT22;15175;48.154;11.534;2022-07-23T02:02:51;23.70;99.90
15967;DHT22;15175;48.154;11.534;2022-07-23T02:05:18;23.70;99.90
15967;DHT22;15175;48.154;11.534;2022-07-23T02:07:46;23.70;99.90
15967;DHT22;15175;48.154;11.534;2022-07-23T02:10:13;23.60;99.90
15967;DHT22;15175;48.154;11.534;2022-07-23T02:12:41;23.60;99.90
15967;DHT22;15175;48.154;11.534;2022-07-23T02:15:09;23.50;99.90
15967;DHT22;15175;48.154;11.534;2022-07-23T02:17:38;23.40;99.90
15967;DHT22;15175;48.154;11.534;2022-07-23T02:20:06;23.40;99.90
15967;DHT22;15175;48.154;11.534;2022-07-23T02:22:33;23.40;99.90
15967;DHT22;15175;48.154;11.534;2022-07-23T02:25:01;23.30;99.90
15967;DHT22;15175;48.154;11.534;2022-07-23T02:27:28;23.30;99.90
15967;DHT22;15175;48.154;11.534;2022-07-23T02:29:57;23.20;99.90
15967;DHT22;15175;48.154;11.534;2022-07-23T02:32:24;23.10;99.90
15967;DHT22;15175;48.154;11.534;2022-07-23T02:34:51;23.10;99.90
15967;DHT22;15175;48.154;11.534;2022-07-23T02:37:20;23.00;99.90
15967;DHT22;15175;48.154;11.534;2022-07-23T02:39:47;23.00;99.90
15967;DHT22;15175;48.154;11.534;2022-07-23T02:42:15;22.90;99.90
15967;DHT22;15175;48.154;11.534;2022-07-23T02:44:43;22.90;99.90
15967;DHT22;15175;48.154;11.534;2022-07-23T02:47:11;22.80;99.90
15967;DHT22;15175;48.154;11.534;2022-07-23T02:49:38;22.70;99.90
15967;DHT22;15175;48.154;11.534;2022-07-23T02:52:07;22.70;99.90
15967;DHT22;15175;48.154;11.534;2022-07-23T02:54:36;22.60;99.90
15967;DHT22;15175;48.154;11.534;2022-07-23T02:57:03;22.60;99.90
15967;DHT22;15175;48.154;11.534;2022-07-23T02:59:30;22.60;99.90
15967;DHT22;15175;48.154;11.534;2022-07-23T03:01:58;22.50;99.90
15967;DHT22;15175;48.154;11.534;2022-07-23T03:04:28;22.50;99.90
15967;DHT22;15175;48.154;11.534;2022-07-23T03:06:55;22.40;99.90
15967;DHT22;15175;48.154;11.534;2022-07-23T03:09:24;22.40;99.90
15967;DHT22;15175;48.154;11.534;2022-07-23T03:11:51;22.40;99.90
15967;DHT22;15175;48.154;11.534;2022-07-23T03:14:19;22.30;99.90
15967;DHT22;15175;48.154;11.534;2022-07-23T03:16:46;22.30;99.90
15967;DHT22;15175;48.154;11.534;2022-07-23T03:19:15;22.30;99.90
15967;DHT22;15175;48.154;11.534;2022-07-23T03:21:43;22.20;99.90
15967;DHT22;15175;48.154;11.534;2022-07-23T03:24:11;22.10;99.90
15967;DHT22;15175;48.154;11.534;2022-07-23T03:26:39;22.10;99.90
15967;DHT22;15175;48.154;11.534;2022-07-23T03:29:07;22.10;99.90
15967;DHT22;15175;48.154;11.534;2022-07-23T03:31:34;22.00;99.90
15967;DHT22;15175;48.154;11.534;2022-07-23T03:34:01;22.00;99.90
15967;DHT22;15175;48.154;11.534;2022-07-23T03:36:29;21.90;99.90
15967;DHT22;15175;48.154;11.534;2022-07-23T03:38:58;21.90;99.90
15967;DHT22;15175;48.154;11.534;2022-07-23T03:41:25;22.00;99.90
15967;DHT22;15175;48.154;11.534;2022-07-23T03:43:53;21.90;99.90
15967;DHT22;15175;48.154;11.534;2022-07-23T03:46:20;22.00;99.90
15967;DHT22;15175;48.154;11.534;2022-07-23T03:48:48;22.00;99.90
15967;DHT22;15175;48.154;11.534;2022-07-23T03:51:15;21.90;99.90
15967;DHT22;15175;48.154;11.534;2022-07-23T03:53:42;21.90;99.90
15967;DHT22;15175;48.154;11.534;2022-07-23T03:56:11;21.80;99.90
15967;DHT22;15175;48.154;11.534;2022-07-23T03:58:38;21.80;99.90
15967;DHT22;15175;48.154;11.534;2022-07-23T04:01:05;21.70;99.90
15967;DHT22;15175;48.154;11.534;2022-07-23T04:03:32;21.70;99.90
15967;DHT22;15175;48.154;11.534;2022-07-23T04:05:59;21.70;99.90
15967;DHT22;15175;48.154;11.534;2022-07-23T04:08:28;21.70;99.90
15967;DHT22;15175;48.154;11.534;2022-07-23T04:10:57;21.60;99.90
15967;DHT22;15175;48.154;11.534;2022-07-23T04:13:26;21.60;99.90
15967;DHT22;15175;48.154;11.534;2022-07-23T04:15:53;21.60;99.90
15967;DHT22;15175;48.154;11.534;2022-07-23T04:18:21;21.50;99.90
15967;DHT22;15175;48.154;11.534;2022-07-23T04:21:15;21.60;99.90
15967;DHT22;15175;48.154;11.534;2022-07-23T04:23:44;21.50;99.90
15967;DHT22;15175;48.154;11.534;2022-07-23T04:26:12;21.50;99.90
15967;DHT22;15175;48.154;11.534;2022-07-23T04:28:41;21.50;99.90
15967;DHT22;15175;48.154;11.534;2022-07-23T04:31:08;21.50;99.90
15967;DHT22;15175;48.154;11.534;2022-07-23T04:33:38;21.50;99.90
15967;DHT22;15175;48.154;11.534;2022-07-23T04:36:07;21.50;99.90
15967;DHT22;15175;48.154;11.534;2022-07-23T04:38:34;21.40;99.90
15967;DHT22;15175;48.154;11.534;2022-07-23T04:41:02;21.50;99.90
15967;DHT22;15175;48.154;11.534;2022-07-23T04:43:30;21.50;99.90
15967;DHT22;15175;48.154;11.534;2022-07-23T04:45:58;21.50;99.90
15967;DHT22;15175;48.154;11.534;2022-07-23T04:48:26;21.50;99.90
15967;DHT22;15175;48.154;11.534;2022-07-23T04:51:00;21.50;99.90
15967;DHT22;15175;48.154;11.534;2022-07-23T04:53:29;21.50;99.90
15967;DHT22;15175;48.154;11.534;2022-07-23T04:56:00;21.40;99.90
15967;DHT22;15175;48.154;11.534;2022-07-23T04:58:28;21.40;99.90
15967;DHT22;15175;48.154;11.534;2022-07-23T05:00:55;21.50;99.90
15967;DHT22;15175;48.154;11.534;2022-07-23T05:03:25;21.50;99.90
15967;DHT22;15175;48.154;11.534;2022-07-23T05:05:52;21.50;99.90
15967;DHT22;15175;48.154;11.534;2022-07-23T05:08:20;21.50;99.90
15967;DHT22;15175;48.154;11.534;2022-07-23T05:10:53;21.50;99.90
15967;DHT22;15175;48.154;11.534;2022-07-23T05:13:21;21.50;99.90
15967;DHT22;15175;48.154;11.534;2022-07-23T05:15:50;21.50;99.90
15967;DHT22;15175;48.154;11.534;2022-07-23T05:18:18;21.50;99.90
15967;DHT22;15175;48.154;11.534;2022-07-23T05:20:46;21.60;99.90
15967;DHT22;15175;48.154;11.534;2022-07-23T05:23:17;21.60;99.90
15967;DHT22;15175;48.154;11.534;2022-07-23T05:25:44;21.60;99.90
15967;DHT22;15175;48.154;11.534;2022-07-23T05:28:12;21.60;99.90
15967;DHT22;15175;48.154;11.534;2022-07-23T05:30:39;21.60;99.90
15967;DHT22;15175;48.154;11.534;2022-07-23T05:33:09;21.60;99.90
15967;DHT22;15175;48.154;11.534;2022-07-23T05:35:37;21.60;99.90
15967;DHT22;15175;48.154;11.534;2022-07-23T05:38:28;21.60;99.90
15967;DHT22;15175;48.154;11.534;2022-07-23T05:40:58;21.60;99.90
15967;DHT22;15175;48.154;11.534;2022-07-23T05:43:25;21.60;99.90
15967;DHT22;15175;48.154;11.534;2022-07-23T05:45:53;21.70;99.90
15967;DHT22;15175;48.154;11.534;2022-07-23T05:48:21;21.70;99.90
15967;DHT22;15175;48.154;11.534;2022-07-23T05:51:01;21.80;99.90
15967;DHT22;15175;48.154;11.534;2022-07-23T05:53:33;21.80;99.90
15967;DHT22;15175;48.154;11.534;2022-07-23T05:56:05;21.80;99.90
15967;DHT22;15175;48.154;11.534;2022-07-23T05:58:32;21.80;99.90
15967;DHT22;15175;48.154;11.534;2022-07-23T06:00:59;21.80;99.90
15967;DHT22;15175;48.154;11.534;2022-07-23T06:03:30;21.70;99.90
15967;DHT22;15175;48.154;11.534;2022-07-23T06:05:57;21.70;99.90
15967;DHT22;15175;48.154;11.534;2022-07-23T06:08:26;21.70;99.90
15967;DHT22;15175;48.154;11.534;2022-07-23T06:10:55;21.70;99.90
15967;DHT22;15175;48.154;11.534;2022-07-23T06:13:22;21.70;99.90
15967;DHT22;15175;48.154;11.534;2022-07-23T06:15:49;21.80;99.90
15967;DHT22;15175;48.154;11.534;2022-07-23T06:18:17;21.80;99.90
15967;DHT22;15175;48.154;11.534;2022-07-23T06:20:44;21.80;99.90
15967;DHT22;15175;48.154;11.534;2022-07-23T06:23:11;21.80;99.90
15967;DHT22;15175;48.154;11.534;2022-07-23T06:25:39;21.90;99.90
15967;DHT22;15175;48.154;11.534;2022-07-23T06:28:07;22.00;99.90
15967;DHT22;15175;48.154;11.534;2022-07-23T06:30:34;22.10;99.90
15967;DHT22;15175;48.154;11.534;2022-07-23T06:33:03;22.20;99.90
15967;DHT22;15175;48.154;11.534;2022-07-23T06:35:30;22.10;99.90
15967;DHT22;15175;48.154;11.534;2022-07-23T06:37:57;22.10;99.90
15967;DHT22;15175;48.154;11.534;2022-07-23T06:40:24;22.00;99.90
15967;DHT22;15175;48.154;11.534;2022-07-23T06:42:51;22.00;99.90
15967;DHT22;15175;48.154;11.534;2022-07-23T06:45:23;21.90;99.90
15967;DHT22;15175;48.154;11.534;2022-07-23T06:47:50;21.90;99.90
15967;DHT22;15175;48.154;11.534;2022-07-23T06:50:18;22.00;99.90
15967;DHT22;15175;48.154;11.534;2022-07-23T06:52:45;22.00;99.90
15967;DHT22;15175;48.154;11.534;2022-07-23T06:55:12;22.00;99.90
15967;DHT22;15175;48.154;11.534;2022-07-23T06:57:39;22.00;99.90
15967;DHT22;15175;48.154;11.534;2022-07-23T07:00:07;22.00;99.90
15967;DHT22;15175;48.154;11.534;2022-07-23T07:02:36;22.00;99.90
15967;DHT22;15175;48.154;11.534;2022-07-23T07:05:05;22.10;99.90
15967;DHT22;15175;48.154;11.534;2022-07-23T07:07:32;22.10;99.90
15967;DHT22;15175;48.154;11.534;2022-07-23T07:09:59;22.20;99.90
15967;DHT22;15175;48.154;11.534;2022-07-23T07:12:26;22.20;99.90
15967;DHT22;15175;48.154;11.534;2022-07-23T07:14:53;22.20;99.90
15967;DHT22;15175;48.154;11.534;2022-07-23T07:17:21;22.20;99.90
15967;DHT22;15175;48.154;11.534;2022-07-23T07:19:49;22.20;99.90
15967;DHT22;15175;48.154;11.534;2022-07-23T07:22:16;22.20;99.90
15967;DHT22;15175;48.154;11.534;2022-07-23T07:24:43;22.30;99.90
15967;DHT22;15175;48.154;11.534;2022-07-23T07:27:10;22.20;99.90
15967;DHT22;15175;48.154;11.534;2022-07-23T07:29:37;22.30;99.90
15967;DHT22;15175;48.154;11.534;2022-07-23T07:32:05;22.30;99.90
15967;DHT22;15175;48.154;11.534;2022-07-23T07:34:32;22.30;99.90
15967;DHT22;15175;48.154;11.534;2022-07-23T07:37:00;22.30;99.90
15967;DHT22;15175;48.154;11.534;2022-07-23T07:39:28;22.30;99.90
15967;DHT22;15175;48.154;11.534;2022-07-23T07:41:55;22.40;99.90
15967;DHT22;15175;48.154;11.534;2022-07-23T07:44:22;22.40;99.90
15967;DHT22;15175;48.154;11.534;2022-07-23T07:46:49;22.40;99.90
15967;DHT22;15175;48.154;11.534;2022-07-23T07:49:16;22.40;99.90
15967;DHT22;15175;48.154;11.534;2022-07-23T07:51:45;22.40;99.90
15967;DHT22;15175;48.154;11.534;2022-07-23T07:54:13;22.50;99.90
15967;DHT22;15175;48.154;11.534;2022-07-23T07:56:40;22.50;99.90
15967;DHT22;15175;48.154;11.534;2022-07-23T07:59:07;22.50;99.90
15967;DHT22;15175;48.154;11.534;2022-07-23T08:01:35;22.50;99.90
15967;DHT22;15175;48.154;11.534;2022-07-23T08:04:02;22.50;99.90
15967;DHT22;15175;48.154;11.534;2022-07-23T08:06:29;22.50;99.90
15967;DHT22;15175;48.154;11.534;2022-07-23T08:08:56;22.50;99.90
15967;DHT22;15175;48.154;11.534;2022-07-23T08:11:24;22.50;99.90
15967;DHT22;15175;48.154;11.534;2022-07-23T08:13:51;22.50;99.90
15967;DHT22;15175;48.154;11.534;2022-07-23T08:16:18;22.60;99.90
15967;DHT22;15175;48.154;11.534;2022-07-23T08:18:45;22.60;99.90
15967;DHT22;15175;48.154;11.534;2022-07-23T08:21:13;22.60;99.90
15967;DHT22;15175;48.154;11.534;2022-07-23T08:23:40;22.60;99.90
15967;DHT22;15175;48.154;11.534;2022-07-23T08:26:07;22.60;99.90
15967;DHT22;15175;48.154;11.534;2022-07-23T08:28:35;22.60;99.90
15967;DHT22;15175;48.154;11.534;2022-07-23T08:31:02;22.60;99.90
15967;DHT22;15175;48.154;11.534;2022-07-23T08:33:31;22.70;99.90
15967;DHT22;15175;48.154;11.534;2022-07-23T08:35:59;22.70;99.90
15967;DHT22;15175;48.154;11.534;2022-07-23T08:38:26;22.70;99.90
15967;DHT22;15175;48.154;11.534;2022-07-23T08:40:55;22.70;99.90
15967;DHT22;15175;48.154;11.534;2022-07-23T08:43:24;22.70;99.90
15967;DHT22;15175;48.154;11.534;2022-07-23T08:45:56;22.70;99.90
15967;DHT22;15175;48.154;11.534;2022-07-23T08:48:25;22.70;99.90
15967;DHT22;15175;48.154;11.534;2022-07-23T08:50:54;22.70;99.90
15967;DHT22;15175;48.154;11.534;2022-07-23T08:53:23;22.70;99.90
15967;DHT22;15175;48.154;11.534;2022-07-23T08:55:51;22.80;99.90
15967;DHT22;15175;48.154;11.534;2022-07-23T08:58:19;22.80;99.90
15967;DHT22;15175;48.154;11.534;2022-07-23T09:00:47;22.80;99.90
15967;DHT22;15175;48.154;11.534;2022-07-23T09:03:18;22.90;99.90
15967;DHT22;15175;48.154;11.534;2022-07-23T09:05:46;23.00;99.90
15967;DHT22;15175;48.154;11.534;2022-07-23T09:08:15;23.10;99.90
15967;DHT22;15175;48.154;11.534;2022-07-23T09:10:53;23.20;99.90
15967;DHT22;15175;48.154;11.534;2022-07-23T09:13:32;23.20;99.90
15967;DHT22;15175;48.154;11.534;2022-07-23T09:16:02;23.30;99.90
15967;DHT22;15175;48.154;11.534;2022-07-23T09:18:33;23.30;99.90
15967;DHT22;15175;48.154;11.534;2022-07-23T09:21:18;23.40;99.90
15967;DHT22;15175;48.154;11.534;2022-07-23T09:23:48;23.40;99.90
15967;DHT22;15175;48.154;11.534;2022-07-23T09:26:31;23.50;99.90
15967;DHT22;15175;48.154;11.534;2022-07-23T09:29:07;23.50;99.90
15967;DHT22;15175;48.154;11.534;2022-07-23T09:31:43;23.60;99.90
15967;DHT22;15175;48.154;11.534;2022-07-23T09:34:15;23.80;99.90
15967;DHT22;15175;48.154;11.534;2022-07-23T09:36:43;23.90;99.90
15967;DHT22;15175;48.154;11.534;2022-07-23T09:39:11;24.00;99.90
15967;DHT22;15175;48.154;11.534;2022-07-23T09:41:40;24.10;99.90
15967;DHT22;15175;48.154;11.534;2022-07-23T09:44:10;24.20;99.90
15967;DHT22;15175;48.154;11.534;2022-07-23T09:46:38;24.40;99.90
15967;DHT22;15175;48.154;11.534;2022-07-23T09:49:18;24.40;99.90
15967;DHT22;15175;48.154;11.534;2022-07-23T09:51:51;24.60;99.90
15967;DHT22;15175;48.154;11.534;2022-07-23T09:54:30;24.70;99.90
15967;DHT22;15175;48.154;11.534;2022-07-23T09:57:00;24.90;99.90
15967;DHT22;15175;48.154;11.534;2022-07-23T09:59:29;25.10;99.90
15967;DHT22;15175;48.154;11.534;2022-07-23T10:01:58;25.20;99.90
15967;DHT22;15175;48.154;11.534;2022-07-23T10:04:28;25.30;99.90
15967;DHT22;15175;48.154;11.534;2022-07-23T10:07:17;25.40;99.90
15967;DHT22;15175;48.154;11.534;2022-07-23T10:10:03;25.50;99.90
15967;DHT22;15175;48.154;11.534;2022-07-23T10:12:43;25.50;99.90
15967;DHT22;15175;48.154;11.534;2022-07-23T10:15:41;25.50;99.90
15967;DHT22;15175;48.154;11.534;2022-07-23T10:18:10;25.60;99.90
15967;DHT22;15175;48.154;11.534;2022-07-23T10:20:39;25.70;99.90
15967;DHT22;15175;48.154;11.534;2022-07-23T10:23:14;25.70;99.90
15967;DHT22;15175;48.154;11.534;2022-07-23T10:25:48;25.80;99.90
15967;DHT22;15175;48.154;11.534;2022-07-23T10:28:31;25.80;99.90
15967;DHT22;15175;48.154;11.534;2022-07-23T10:31:06;25.90;99.90
15967;DHT22;15175;48.154;11.534;2022-07-23T10:33:45;26.00;99.90
15967;DHT22;15175;48.154;11.534;2022-07-23T10:36:19;26.10;99.90
15967;DHT22;15175;48.154;11.534;2022-07-23T10:38:53;26.20;99.90
15967;DHT22;15175;48.154;11.534;2022-07-23T10:41:31;26.40;99.90
15967;DHT22;15175;48.154;11.534;2022-07-23T10:44:10;26.50;99.90
15967;DHT22;15175;48.154;11.534;2022-07-23T10:46:58;26.50;99.90
15967;DHT22;15175;48.154;11.534;2022-07-23T10:49:43;26.50;99.90
15967;DHT22;15175;48.154;11.534;2022-07-23T10:52:33;26.50;99.90
15967;DHT22;15175;48.154;11.534;2022-07-23T10:58:02;26.60;99.90
15967;DHT22;15175;48.154;11.534;2022-07-23T11:00:29;26.50;99.90
15967;DHT22;15175;48.154;11.534;2022-07-23T11:02:58;26.50;99.90
15967;DHT22;15175;48.154;11.534;2022-07-23T11:05:38;26.50;99.90
15967;DHT22;15175;48.154;11.534;2022-07-23T11:08:25;26.50;99.90
15967;DHT22;15175;48.154;11.534;2022-07-23T11:10:55;26.50;99.90
15967;DHT22;15175;48.154;11.534;2022-07-23T11:13:40;26.50;99.90
15967;DHT22;15175;48.154;11.534;2022-07-23T11:16:21;26.50;99.90
15967;DHT22;15175;48.154;11.534;2022-07-23T11:18:59;26.50;99.90
15967;DHT22;15175;48.154;11.534;2022-07-23T11:21:43;26.60;99.90
15967;DHT22;15175;48.154;11.534;2022-07-23T11:24:13;26.60;99.90
15967;DHT22;15175;48.154;11.534;2022-07-23T11:26:45;26.50;99.90
15967;DHT22;15175;48.154;11.534;2022-07-23T11:29:43;26.50;99.90
15967;DHT22;15175;48.154;11.534;2022-07-23T11:35:25;26.50;99.90
15967;DHT22;15175;48.154;11.534;2022-07-23T11:37:54;26.50;99.90
15967;DHT22;15175;48.154;11.534;2022-07-23T11:40:25;26.40;99.90
15967;DHT22;15175;48.154;11.534;2022-07-23T11:42:56;26.40;99.90
15967;DHT22;15175;48.154;11.534;2022-07-23T11:45:30;26.30;99.90
15967;DHT22;15175;48.154;11.534;2022-07-23T11:47:58;26.30;99.90
15967;DHT22;15175;48.154;11.534;2022-07-23T11:50:25;26.20;99.90
15967;DHT22;15175;48.154;11.534;2022-07-23T11:52:52;26.20;99.90
15967;DHT22;15175;48.154;11.534;2022-07-23T11:55:20;26.20;99.90
15967;DHT22;15175;48.154;11.534;2022-07-23T11:57:51;26.00;99.90
15967;DHT22;15175;48.154;11.534;2022-07-23T12:00:20;26.00;99.90
15967;DHT22;15175;48.154;11.534;2022-07-23T12:02:49;26.00;99.90
15967;DHT22;15175;48.154;11.534;2022-07-23T12:05:22;26.00;99.90
15967;DHT22;15175;48.154;11.534;2022-07-23T12:07:50;26.00;99.90
15967;DHT22;15175;48.154;11.534;2022-07-23T12:10:20;26.00;99.90
15967;DHT22;15175;48.154;11.534;2022-07-23T12:12:50;26.00;99.90
15967;DHT22;15175;48.154;11.534;2022-07-23T12:15:21;26.00;99.90
15967;DHT22;15175;48.154;11.534;2022-07-23T12:17:50;26.00;99.90
15967;DHT22;15175;48.154;11.534;2022-07-23T12:20:20;26.00;99.90
15967;DHT22;15175;48.154;11.534;2022-07-23T12:22:49;26.00;99.90
15967;DHT22;15175;48.154;11.534;2022-07-23T12:25:18;26.00;99.90
15967;DHT22;15175;48.154;11.534;2022-07-23T12:27:46;26.00;99.90
15967;DHT22;15175;48.154;11.534;2022-07-23T12:30:23;26.00;99.90
15967;DHT22;15175;48.154;11.534;2022-07-23T12:32:53;26.00;99.90
15967;DHT22;15175;48.154;11.534;2022-07-23T12:35:21;26.00;99.90
15967;DHT22;15175;48.154;11.534;2022-07-23T12:37:50;26.00;99.90
15967;DHT22;15175;48.154;11.534;2022-07-23T12:40:25;26.00;99.90
15967;DHT22;15175;48.154;11.534;2022-07-23T12:42:56;26.00;99.90
15967;DHT22;15175;48.154;11.534;2022-07-23T12:45:26;25.90;99.90
15967;DHT22;15175;48.154;11.534;2022-07-23T12:47:55;25.90;99.90
15967;DHT22;15175;48.154;11.534;2022-07-23T12:50:47;25.90;99.90
15967;DHT22;15175;48.154;11.534;2022-07-23T12:53:17;25.90;99.90
15967;DHT22;15175;48.154;11.534;2022-07-23T12:55:45;25.90;99.90
15967;DHT22;15175;48.154;11.534;2022-07-23T12:58:14;25.90;99.90
15967;DHT22;15175;48.154;11.534;2022-07-23T13:01:00;25.90;99.90
15967;DHT22;15175;48.154;11.534;2022-07-23T13:03:31;25.70;99.90
15967;DHT22;15175;48.154;11.534;2022-07-23T13:05:59;25.80;99.90
15967;DHT22;15175;48.154;11.534;2022-07-23T13:08:29;25.80;99.90
15967;DHT22;15175;48.154;11.534;2022-07-23T13:10:57;25.80;99.90
15967;DHT22;15175;48.154;11.534;2022-07-23T13:13:26;25.70;99.90
15967;DHT22;15175;48.154;11.534;2022-07-23T13:15:54;25.70;99.90
15967;DHT22;15175;48.154;11.534;2022-07-23T13:18:21;25.60;99.90
15967;DHT22;15175;48.154;11.534;2022-07-23T13:20:50;25.60;99.90
15967;DHT22;15175;48.154;11.534;2022-07-23T13:23:17;25.60;99.90
15967;DHT22;15175;48.154;11.534;2022-07-23T13:25:45;25.60;99.90
15967;DHT22;15175;48.154;11.534;2022-07-23T13:28:13;25.60;99.90
15967;DHT22;15175;48.154;11.534;2022-07-23T13:30:41;25.60;99.90
15967;DHT22;15175;48.154;11.534;2022-07-23T13:33:09;25.50;99.90
15967;DHT22;15175;48.154;11.534;2022-07-23T13:35:37;25.50;99.90
15967;DHT22;15175;48.154;11.534;2022-07-23T13:38:05;25.50;99.90
15967;DHT22;15175;48.154;11.534;2022-07-23T13:40:34;25.50;99.90
15967;DHT22;15175;48.154;11.534;2022-07-23T13:43:01;25.50;99.90
15967;DHT22;15175;48.154;11.534;2022-07-23T13:45:29;25.50;99.90
15967;DHT22;15175;48.154;11.534;2022-07-23T13:47:56;25.60;99.90
15967;DHT22;15175;48.154;11.534;2022-07-23T13:50:24;25.60;99.90
15967;DHT22;15175;48.154;11.534;2022-07-23T13:52:51;25.70;99.90
15967;DHT22;15175;48.154;11.534;2022-07-23T13:55:18;25.70;99.90
15967;DHT22;15175;48.154;11.534;2022-07-23T13:57:46;25.70;99.90
15967;DHT22;15175;48.154;11.534;2022-07-23T14:00:13;25.70;99.90
15967;DHT22;15175;48.154;11.534;2022-07-23T14:02:41;25.60;99.90
15967;DHT22;15175;48.154;11.534;2022-07-23T14:05:09;25.60;99.90
15967;DHT22;15175;48.154;11.534;2022-07-23T14:07:39;25.60;99.90
15967;DHT22;15175;48.154;11.534;2022-07-23T14:10:09;25.60;99.90
15967;DHT22;15175;48.154;11.534;2022-07-23T14:12:36;25.60;99.90
15967;DHT22;15175;48.154;11.534;2022-07-23T14:15:05;25.60;99.90
15967;DHT22;15175;48.154;11.534;2022-07-23T14:17:34;25.60;99.90
15967;DHT22;15175;48.154;11.534;2022-07-23T14:20:03;25.60;99.90
15967;DHT22;15175;48.154;11.534;2022-07-23T14:22:30;25.60;99.90
15967;DHT22;15175;48.154;11.534;2022-07-23T14:24:59;25.60;99.90
15967;DHT22;15175;48.154;11.534;2022-07-23T14:27:27;25.50;99.90
15967;DHT22;15175;48.154;11.534;2022-07-23T14:29:55;25.50;99.90
15967;DHT22;15175;48.154;11.534;2022-07-23T14:32:23;25.50;99.90
15967;DHT22;15175;48.154;11.534;2022-07-23T14:34:51;25.50;99.90
15967;DHT22;15175;48.154;11.534;2022-07-23T14:37:19;25.40;99.90
15967;DHT22;15175;48.154;11.534;2022-07-23T14:39:46;25.50;99.90
15967;DHT22;15175;48.154;11.534;2022-07-23T14:42:15;25.40;99.90
15967;DHT22;15175;48.154;11.534;2022-07-23T14:44:42;25.40;99.90
15967;DHT22;15175;48.154;11.534;2022-07-23T14:47:09;25.40;99.90
15967;DHT22;15175;48.154;11.534;2022-07-23T14:49:37;25.50;99.90
15967;DHT22;15175;48.154;11.534;2022-07-23T14:52:05;25.50;99.90
15967;DHT22;15175;48.154;11.534;2022-07-23T14:54:32;25.40;99.90
15967;DHT22;15175;48.154;11.534;2022-07-23T14:57:01;25.50;99.90
15967;DHT22;15175;48.154;11.534;2022-07-23T14:59:29;25.50;99.90
15967;DHT22;15175;48.154;11.534;2022-07-23T15:01:57;25.60;99.90
15967;DHT22;15175;48.154;11.534;2022-07-23T15:04:24;25.60;99.90
15967;DHT22;15175;48.154;11.534;2022-07-23T15:06:51;25.50;99.90
15967;DHT22;15175;48.154;11.534;2022-07-23T15:09:18;25.50;99.90
15967;DHT22;15175;48.154;11.534;2022-07-23T15:11:46;25.40;99.90
15967;DHT22;15175;48.154;11.534;2022-07-23T15:14:13;25.40;99.90
15967;DHT22;15175;48.154;11.534;2022-07-23T15:16:41;25.50;99.90
15967;DHT22;15175;48.154;11.534;2022-07-23T15:19:08;25.50;99.90
15967;DHT22;15175;48.154;11.534;2022-07-23T15:21:36;25.60;99.90
15967;DHT22;15175;48.154;11.534;2022-07-23T15:24:03;25.70;99.90
15967;DHT22;15175;48.154;11.534;2022-07-23T15:26:30;25.60;99.90
15967;DHT22;15175;48.154;11.534;2022-07-23T15:28:58;25.70;99.90
15967;DHT22;15175;48.154;11.534;2022-07-23T15:31:27;25.70;99.90
15967;DHT22;15175;48.154;11.534;2022-07-23T15:33:55;25.70;99.90
15967;DHT22;15175;48.154;11.534;2022-07-23T15:36:22;25.70;99.90